FTTJ

N'Djamena International Airport

N'Djamena, Chad
METAR FTTJ 182300Z 05015KT 7000 -TSRA BKN020 SCT050CB 23/22 Q1012 TEMPO 3500 TSRA
Observed Flight Rules
Aug-18 @ 23:00 UTC (44 minutes ago) Marginal Visual Flight Rules
Wind Visibility Clouds Conditions
50° at 15 knots 7,001 meters
  • Broken at 2,000' AGL
  • Scattered at 5,000' AGL
  • Light Thunderstorm
  • Light Rain
Temperatures Readings
Current 23°C / 73°F
Dewpoint 22°C / 72°F
Humidity 94%
Altimeter 29.88" Hg
Pressure 1012 hPa
Elevation 295
METAR FTTJ 182300Z 05015KT 7000 -TSRA BKN020 SCT050CB 23/22 Q1012 TEMPO 3500 TSRA
Observed Flight Rules
Aug-18 @ 23:00 UTC
(44 minutes ago)
MVFR
Wind Visibility
50° at 15 knots 7,001 meters
Clouds
  • Broken at 2,000' AGL
  • Scattered at 5,000' AGL
Conditions
  • Light Thunderstorm
  • Light Rain
Temperature Dewpoint
23°C / 73°F 22°C / 72°F
Humidity Altimeter Pressure
94% 29.88" Hg 1012 hPa